Esbjerg, Denmark

03:22 AM CEST am 23. Mai 2017 (GMT +0200)
Bag Møllen | | Change Station

Höhe 55 ft 55.47 °N, 8.47 °E | Updated 15 minutes ago

Bedeckt
Bedeckt
56.5 °F
gefühlte 56.5 °F
N
1.2
Wind Wechselnd Wind aus Süd
Gusts 1.9 mph

Heute
Max. -- | schwach -- °F
--% Regenrisiko
Gestern
Max. -- | schwach -- °F
Precip. -- inch
Druck 30.01 inch
Sichtweite 6.2 Meilen
Wolken Few 4800 ft
Wolkig 17000 ft
Taupunkt 47 °F
Feuchtigkeit 70%
Regen 0.00 inch
Schneehöhe Nicht verfügbar..
5:02 AM 9:44 PM
Letztes Viertel, 11% visible
METAR EKSP 230050Z 11002KT 9999 FEW048 BKN170 11/09 Q1016
Druck 30.01 inch
Sichtweite 6.2 Meilen
Wolken Few 4800 ft
Wolkig 17000 ft
Taupunkt 47 °F
Feuchtigkeit 70%
Regen 0.00 inch
Schneehöhe Nicht verfügbar..
5:02 AM 9:44 PM
Letztes Viertel, 11% visible
METAR EKSP 230050Z 11002KT 9999 FEW048 BKN170 11/09 Q1016

Get Severe Weather Alerts

Thanks for signing up!

Be on the lookout for a verification email in your inbox.

You'll start receiving the daily forecast at 6 AM.

×

10-Day Weather Forecast

×

Almanac

Astronomie

May. 23, 2017 Aufgang Untergang
Genaue Zeit
Bürgerliche Dämmerung
Nautische Dämmerung
Astronomische Dämmerung
Mond
Länge des sichtbaren Lichts
Tageslänge
Tomorrow will be .
, % of the Moon is Illuminated

Heutige Rekorde

Country Highs Country Lows

Community

WunderPhotos

Category 6

Welcome to Category 6. This is the collective home for Weather Underground's featured writeups by Dr. Jeff Masters (right), Bob Henson (left), Chris Burt, and other regular contributors.

Nearby

Luftqualität

  Luftqualität LQ Index Schadstoff
Not available.

Schneehöhe

Station Depth Höhe

Erdbebenaktivität

Stadt Distance Mag. Time & Date
Minimum magnitude displayed is 2.5.

küstennahe Wassertemperaturen

Ort Temperatur

Stations

Wetterstationen in der Umgebung

Stationsstandort Temp. Windchill Taupunkt Feuchtigkeit Wind Precip. Höhe Aktualisiert Art